createdAt,value
2022-10-30T00:02:19.140Z,17.60
2022-10-30T00:04:48.396Z,17.30
2022-10-30T00:07:17.507Z,16.90
2022-10-30T00:09:46.582Z,16.70
2022-10-30T00:12:15.792Z,16.80
2022-10-30T00:14:45.050Z,15.90
2022-10-30T00:17:14.197Z,15.30
2022-10-30T00:19:44.708Z,17.27
2022-10-30T00:22:13.711Z,14.70
2022-10-30T00:24:43.117Z,15.13
2022-10-30T00:27:12.411Z,16.10
2022-10-30T00:29:42.032Z,15.63
2022-10-30T00:32:11.030Z,16.93
2022-10-30T00:34:40.187Z,16.97
2022-10-30T00:37:11.851Z,15.00
2022-10-30T00:39:42.347Z,15.80
2022-10-30T00:42:13.066Z,16.53
2022-10-30T00:44:44.958Z,17.00
2022-10-30T00:47:17.747Z,16.70
2022-10-30T00:49:52.160Z,17.33
2022-10-30T00:52:23.204Z,17.80
2022-10-30T00:54:53.664Z,18.30
2022-10-30T00:57:22.783Z,18.73
2022-10-30T00:59:52.292Z,19.73
2022-10-30T01:02:22.216Z,21.50
2022-10-30T01:04:52.577Z,20.57
2022-10-30T01:07:23.201Z,21.33
2022-10-30T01:09:52.634Z,20.23
2022-10-30T01:12:21.725Z,20.60
2022-10-30T01:14:52.830Z,21.43
2022-10-30T01:17:33.918Z,21.90
2022-10-30T01:20:09.986Z,19.13
2022-10-30T01:22:51.889Z,20.00
2022-10-30T01:25:28.919Z,18.53
2022-10-30T01:28:09.127Z,19.30
2022-10-30T01:30:45.907Z,20.53
2022-10-30T01:33:25.942Z,18.53
2022-10-30T01:35:56.532Z,18.70
2022-10-30T01:38:29.577Z,19.80
2022-10-30T01:41:00.692Z,19.00
2022-10-30T01:43:29.785Z,18.20
2022-10-30T01:46:06.767Z,17.83
2022-10-30T01:48:46.729Z,17.20
2022-10-30T01:51:22.081Z,15.80
2022-10-30T01:53:55.103Z,15.07
2022-10-30T01:56:29.143Z,15.83
2022-10-30T01:59:05.236Z,15.73
2022-10-30T02:01:35.950Z,15.17
2022-10-30T02:04:06.037Z,13.63
2022-10-30T02:06:36.812Z,14.53
2022-10-30T02:09:09.780Z,15.60
2022-10-30T02:11:46.534Z,16.10
2022-10-30T02:14:18.024Z,16.57
2022-10-30T02:16:50.652Z,19.50
2022-10-30T02:19:22.005Z,18.00
2022-10-30T02:21:53.205Z,20.47
2022-10-30T02:24:22.402Z,19.87
2022-10-30T02:26:51.495Z,21.60
2022-10-30T02:29:22.306Z,21.33
2022-10-30T02:31:51.667Z,22.40
2022-10-30T02:34:20.802Z,26.00
2022-10-30T02:36:49.988Z,24.30
2022-10-30T02:39:24.271Z,23.87
2022-10-30T02:41:53.481Z,25.17
2022-10-30T02:44:22.545Z,23.80
2022-10-30T02:46:51.805Z,23.03
2022-10-30T02:49:20.767Z,19.13
2022-10-30T02:51:49.909Z,19.00
2022-10-30T02:54:19.909Z,20.60
2022-10-30T02:56:52.239Z,19.43
2022-10-30T02:59:23.692Z,17.73
2022-10-30T03:01:53.655Z,20.17
2022-10-30T03:04:22.800Z,16.93
2022-10-30T03:06:52.031Z,16.00
2022-10-30T03:09:21.270Z,15.83
2022-10-30T03:11:50.571Z,14.70
2022-10-30T03:14:21.066Z,14.40
2022-10-30T03:16:52.787Z,13.50
2022-10-30T03:19:21.979Z,13.50
2022-10-30T03:21:51.124Z,14.00
2022-10-30T03:24:20.419Z,15.97
2022-10-30T03:26:49.941Z,16.03
2022-10-30T03:29:19.024Z,16.50
2022-10-30T03:31:49.537Z,15.93
2022-10-30T03:34:22.027Z,14.67
2022-10-30T03:36:51.370Z,14.90
2022-10-30T03:39:20.403Z,13.90
2022-10-30T03:41:49.614Z,14.63
2022-10-30T03:44:20.053Z,14.50
2022-10-30T03:46:51.199Z,13.03
2022-10-30T03:49:28.822Z,13.90
2022-10-30T03:51:58.984Z,12.97
2022-10-30T03:54:28.893Z,12.70
2022-10-30T03:56:58.419Z,14.43
2022-10-30T03:59:30.507Z,13.03
2022-10-30T04:04:53.939Z,13.37
2022-10-30T04:07:23.065Z,13.70
2022-10-30T04:09:52.253Z,13.03
2022-10-30T04:12:21.246Z,12.60
2022-10-30T04:14:50.765Z,13.60
2022-10-30T04:17:21.644Z,12.43
2022-10-30T04:19:50.968Z,13.50
2022-10-30T04:22:19.992Z,14.00
2022-10-30T04:24:49.294Z,13.27
2022-10-30T04:27:20.122Z,15.00
2022-10-30T04:29:49.779Z,14.13
2022-10-30T04:32:21.151Z,13.50
2022-10-30T04:34:53.454Z,14.77
2022-10-30T04:37:22.722Z,16.23
2022-10-30T04:39:51.949Z,16.77
2022-10-30T04:42:26.782Z,16.97
2022-10-30T04:44:56.067Z,16.63
2022-10-30T04:47:27.767Z,16.13
2022-10-30T04:49:57.043Z,17.90
2022-10-30T04:52:26.271Z,17.30
2022-10-30T04:54:55.719Z,18.13
2022-10-30T04:57:25.140Z,18.63
2022-10-30T04:59:54.685Z,17.53
2022-10-30T05:02:24.065Z,19.53
2022-10-30T05:04:54.920Z,17.97
2022-10-30T05:07:24.028Z,18.73
2022-10-30T05:09:53.459Z,19.67
2022-10-30T05:12:24.225Z,19.40
2022-10-30T05:14:56.612Z,17.43
2022-10-30T05:17:25.798Z,18.10
2022-10-30T05:19:56.886Z,17.77
2022-10-30T05:22:26.052Z,19.07
2022-10-30T05:24:55.219Z,19.37
2022-10-30T05:27:24.653Z,21.10
2022-10-30T05:29:53.829Z,18.83
2022-10-30T05:32:23.080Z,19.07
2022-10-30T05:34:53.115Z,19.03
2022-10-30T05:37:26.655Z,17.07
2022-10-30T05:39:55.910Z,17.17
2022-10-30T05:42:29.109Z,17.47
2022-10-30T05:45:02.259Z,16.50
2022-10-30T05:47:36.048Z,17.17
2022-10-30T05:50:05.466Z,15.70
2022-10-30T05:52:35.928Z,14.60
2022-10-30T05:55:05.332Z,15.70
2022-10-30T05:57:57.553Z,15.50
2022-10-30T06:00:27.260Z,15.30
2022-10-30T06:03:01.292Z,16.30
2022-10-30T06:05:33.406Z,17.07
2022-10-30T06:08:05.538Z,15.40
2022-10-30T06:10:35.346Z,15.90
2022-10-30T06:13:16.616Z,17.00
2022-10-30T06:15:59.017Z,15.57
2022-10-30T06:18:36.390Z,17.30
2022-10-30T06:21:11.891Z,15.30
2022-10-30T06:24:12.081Z,15.20
2022-10-30T06:26:46.345Z,16.70
2022-10-30T06:29:16.504Z,16.13
2022-10-30T06:31:45.624Z,15.03
2022-10-30T06:34:15.013Z,16.23
2022-10-30T06:36:44.900Z,14.60
2022-10-30T06:39:15.639Z,16.67
2022-10-30T06:42:03.167Z,14.97
2022-10-30T06:44:50.209Z,13.87
2022-10-30T06:47:19.702Z,14.90
2022-10-30T06:49:48.853Z,16.73
2022-10-30T06:52:23.204Z,16.57
2022-10-30T06:54:56.456Z,14.83
2022-10-30T06:57:46.905Z,13.93
2022-10-30T07:00:35.043Z,15.93
2022-10-30T07:03:22.852Z,13.70
2022-10-30T07:05:53.656Z,13.90
2022-10-30T07:08:23.170Z,13.40
2022-10-30T07:10:53.758Z,13.80
2022-10-30T07:13:43.131Z,14.40
2022-10-30T07:16:31.199Z,14.60
2022-10-30T07:19:02.230Z,14.83
2022-10-30T07:21:34.717Z,14.13
2022-10-30T07:24:07.882Z,12.87
2022-10-30T07:26:46.629Z,14.70
2022-10-30T07:29:36.547Z,13.10
2022-10-30T07:32:28.644Z,13.20
2022-10-30T07:35:12.393Z,12.27
2022-10-30T07:38:04.424Z,12.47
2022-10-30T07:40:43.817Z,11.93
2022-10-30T07:43:39.914Z,12.80
2022-10-30T07:46:35.253Z,11.23
2022-10-30T07:49:27.561Z,12.70
2022-10-30T07:52:01.642Z,12.70
2022-10-30T07:54:30.928Z,11.97
2022-10-30T07:57:08.031Z,11.47
2022-10-30T08:00:00.964Z,13.10
2022-10-30T08:02:42.886Z,11.67
2022-10-30T08:05:28.991Z,11.77
2022-10-30T08:08:08.104Z,10.40
2022-10-30T08:10:38.065Z,10.63
2022-10-30T08:13:07.210Z,10.90
2022-10-30T08:15:39.731Z,11.70
2022-10-30T08:18:08.884Z,11.50
2022-10-30T08:20:40.280Z,10.50
2022-10-30T08:23:11.326Z,11.93
2022-10-30T08:25:40.532Z,9.80
2022-10-30T08:28:11.865Z,10.90
2022-10-30T08:30:44.117Z,11.70
2022-10-30T08:33:16.666Z,11.33
2022-10-30T08:36:04.441Z,11.50
2022-10-30T08:38:34.606Z,11.50
2022-10-30T08:41:33.221Z,11.50
2022-10-30T08:44:02.743Z,10.90
2022-10-30T08:46:44.550Z,11.87
2022-10-30T08:49:13.696Z,11.80
2022-10-30T08:51:50.295Z,13.50
2022-10-30T08:54:20.280Z,11.97
2022-10-30T08:56:49.767Z,12.10
2022-10-30T08:59:21.162Z,13.50
2022-10-30T09:01:54.879Z,14.33
2022-10-30T09:04:24.383Z,13.10
2022-10-30T09:07:28.714Z,11.93
2022-10-30T09:11:57.790Z,11.17
2022-10-30T09:14:30.208Z,10.43
2022-10-30T09:16:59.410Z,9.00
2022-10-30T09:19:28.799Z,9.03
2022-10-30T09:22:00.351Z,9.40
2022-10-30T09:24:29.743Z,14.83
2022-10-30T09:27:01.932Z,10.97
2022-10-30T09:29:34.259Z,11.67
2022-10-30T09:32:05.211Z,10.43
2022-10-30T09:34:35.544Z,11.17
2022-10-30T09:37:21.676Z,9.10
2022-10-30T09:39:53.782Z,10.93
2022-10-30T09:42:36.720Z,10.43
2022-10-30T09:45:29.389Z,10.20
2022-10-30T09:48:07.215Z,8.90
2022-10-30T09:50:53.616Z,9.63
2022-10-30T09:53:25.572Z,12.53
2022-10-30T09:56:00.027Z,11.60
2022-10-30T09:58:32.776Z,8.77
2022-10-30T10:01:14.065Z,8.37
2022-10-30T10:03:58.504Z,9.93
2022-10-30T10:06:57.243Z,9.80
2022-10-30T10:09:50.208Z,10.50
2022-10-30T10:12:46.960Z,10.27
2022-10-30T10:15:19.088Z,9.90
2022-10-30T10:17:49.722Z,9.53
2022-10-30T10:20:22.046Z,8.87
2022-10-30T10:22:52.193Z,9.83
2022-10-30T10:25:22.140Z,10.60
2022-10-30T10:27:56.258Z,9.43
2022-10-30T10:30:26.386Z,9.77
2022-10-30T10:33:07.323Z,8.87
2022-10-30T10:35:45.238Z,10.63
2022-10-30T10:38:17.091Z,11.20
2022-10-30T10:40:52.530Z,9.70
2022-10-30T10:43:27.981Z,8.83
2022-10-30T10:46:02.049Z,10.17
2022-10-30T10:48:50.034Z,9.40
2022-10-30T10:51:23.088Z,9.90
2022-10-30T10:53:56.545Z,9.93
2022-10-30T10:56:30.183Z,12.17
2022-10-30T10:59:01.115Z,10.30
2022-10-30T11:01:34.780Z,10.37
2022-10-30T11:04:06.617Z,13.23
2022-10-30T11:06:38.181Z,11.50
2022-10-30T11:09:15.015Z,11.07
2022-10-30T11:11:45.202Z,12.83
2022-10-30T11:14:18.175Z,11.27
2022-10-30T11:16:54.878Z,10.40
2022-10-30T11:19:25.169Z,9.27
2022-10-30T11:21:57.432Z,9.40
2022-10-30T11:24:31.284Z,8.70
2022-10-30T11:27:01.329Z,10.03
2022-10-30T11:29:31.091Z,9.60
2022-10-30T11:32:04.364Z,9.57
2022-10-30T11:34:34.584Z,10.07
2022-10-30T11:37:05.769Z,10.43
2022-10-30T11:39:35.838Z,9.70
2022-10-30T11:42:07.097Z,10.03
2022-10-30T11:44:38.434Z,9.70
2022-10-30T11:47:08.498Z,10.43
2022-10-30T11:49:41.130Z,10.20
2022-10-30T11:52:12.048Z,10.33
2022-10-30T11:54:44.958Z,9.83
2022-10-30T11:57:20.886Z,9.30
2022-10-30T11:59:51.967Z,10.07
2022-10-30T12:02:22.769Z,9.83
2022-10-30T12:04:53.131Z,9.33
2022-10-30T12:07:27.985Z,9.70
2022-10-30T12:09:59.587Z,10.13
2022-10-30T12:12:31.797Z,10.47
2022-10-30T12:15:11.185Z,9.90
2022-10-30T12:17:41.287Z,9.43
2022-10-30T12:20:16.193Z,10.20
2022-10-30T12:22:46.954Z,16.07
2022-10-30T12:25:23.414Z,10.13
2022-10-30T12:27:53.573Z,11.20
2022-10-30T12:30:23.076Z,11.30
2022-10-30T12:32:54.958Z,11.60
2022-10-30T12:35:29.590Z,9.53
2022-10-30T12:38:00.832Z,8.90
2022-10-30T12:40:32.527Z,7.67
2022-10-30T12:43:06.066Z,8.57
2022-10-30T12:45:38.699Z,8.20
2022-10-30T12:48:11.971Z,8.67
2022-10-30T12:50:44.935Z,8.73
2022-10-30T12:53:20.122Z,7.50
2022-10-30T12:55:51.536Z,8.40
2022-10-30T12:58:24.041Z,9.53
2022-10-30T13:00:56.818Z,9.37
2022-10-30T13:03:28.388Z,9.67
2022-10-30T13:05:59.226Z,9.57
2022-10-30T13:08:32.031Z,10.50
2022-10-30T13:11:05.472Z,10.27
2022-10-30T13:13:36.778Z,8.30
2022-10-30T13:16:08.833Z,9.53
2022-10-30T13:18:38.173Z,8.33
2022-10-30T13:21:18.166Z,8.87
2022-10-30T13:23:51.529Z,11.00
2022-10-30T13:26:24.669Z,11.10
2022-10-30T13:28:56.668Z,8.57
2022-10-30T13:31:30.427Z,7.90
2022-10-30T13:34:03.641Z,9.20
2022-10-30T13:36:35.320Z,9.53
2022-10-30T13:39:15.197Z,9.17
2022-10-30T13:41:49.175Z,8.73
2022-10-30T13:44:24.773Z,9.43
2022-10-30T13:47:01.061Z,9.90
2022-10-30T13:49:37.582Z,8.40
2022-10-30T13:52:09.875Z,8.07
2022-10-30T13:54:43.109Z,8.60
2022-10-30T13:57:19.033Z,8.80
2022-10-30T13:59:58.678Z,9.33
2022-10-30T14:02:37.133Z,7.40
2022-10-30T14:05:15.522Z,9.73
2022-10-30T14:07:48.351Z,9.70
2022-10-30T14:10:23.407Z,8.63
2022-10-30T14:12:53.503Z,8.07
2022-10-30T14:15:28.005Z,10.40
2022-10-30T14:18:15.578Z,9.80
2022-10-30T14:20:46.490Z,9.33
2022-10-30T14:23:17.018Z,8.20
2022-10-30T14:26:07.727Z,8.40
2022-10-30T14:28:37.951Z,9.83
2022-10-30T14:31:10.552Z,7.87
2022-10-30T14:33:52.867Z,8.17
2022-10-30T14:36:23.838Z,9.43
2022-10-30T14:38:58.217Z,8.97
2022-10-30T14:41:45.991Z,8.47
2022-10-30T14:44:29.926Z,8.50
2022-10-30T14:47:14.739Z,8.90
2022-10-30T14:49:47.066Z,9.60
2022-10-30T14:52:31.244Z,9.83
2022-10-30T14:55:07.274Z,8.60
2022-10-30T14:57:48.465Z,9.67
2022-10-30T15:00:47.744Z,7.80
2022-10-30T15:03:28.920Z,7.67
2022-10-30T15:06:00.049Z,10.63
2022-10-30T15:08:42.226Z,10.00
2022-10-30T15:11:21.659Z,9.80
2022-10-30T15:13:52.667Z,8.77
2022-10-30T15:16:23.336Z,8.97
2022-10-30T15:18:58.476Z,11.90
2022-10-30T15:21:29.918Z,12.67
2022-10-30T15:24:00.848Z,9.90
2022-10-30T15:26:33.252Z,9.53
2022-10-30T15:29:03.251Z,9.80
2022-10-30T15:31:33.464Z,9.90
2022-10-30T15:34:04.142Z,10.70
2022-10-30T15:36:37.502Z,9.43
2022-10-30T15:39:08.109Z,8.90
2022-10-30T15:41:40.787Z,8.37
2022-10-30T15:44:10.255Z,9.20
2022-10-30T15:46:40.209Z,8.63
2022-10-30T15:49:11.388Z,10.40
2022-10-30T15:51:46.439Z,8.70
2022-10-30T15:54:16.836Z,10.10
2022-10-30T15:57:15.827Z,7.93
2022-10-30T15:59:36.456Z,9.17
2022-10-30T16:02:05.830Z,8.60
2022-10-30T16:04:39.186Z,9.70
2022-10-30T16:07:18.754Z,7.67
2022-10-30T16:09:55.024Z,11.67
2022-10-30T16:12:26.455Z,8.30
2022-10-30T16:14:56.309Z,8.43
2022-10-30T16:17:26.424Z,9.60
2022-10-30T16:19:59.020Z,11.30
2022-10-30T16:22:29.949Z,10.43
2022-10-30T16:24:59.926Z,8.80
2022-10-30T16:27:29.320Z,7.90
2022-10-30T16:30:00.222Z,8.43
2022-10-30T16:32:31.507Z,10.70
2022-10-30T16:35:04.203Z,9.60
2022-10-30T16:37:35.329Z,11.80
2022-10-30T16:40:08.613Z,11.77
2022-10-30T16:42:38.163Z,9.50
2022-10-30T16:45:35.231Z,7.67
2022-10-30T16:48:09.596Z,10.07
2022-10-30T16:50:40.532Z,11.70
2022-10-30T16:53:14.305Z,9.97
2022-10-30T16:55:43.640Z,9.57
2022-10-30T16:58:14.757Z,10.80
2022-10-30T17:00:44.924Z,11.67
2022-10-30T17:03:14.310Z,10.10
2022-10-30T17:05:44.962Z,10.93
2022-10-30T17:08:29.849Z,10.10
2022-10-30T17:11:00.481Z,10.20
2022-10-30T17:13:32.164Z,11.43
2022-10-30T17:16:02.509Z,12.57
2022-10-30T17:18:33.330Z,11.10
2022-10-30T17:21:08.480Z,10.00
2022-10-30T17:23:37.865Z,9.80
2022-10-30T17:26:10.606Z,11.30
2022-10-30T17:28:40.077Z,12.70
2022-10-30T17:31:30.244Z,10.67
2022-10-30T17:34:16.487Z,13.57
2022-10-30T17:36:47.774Z,10.83
2022-10-30T17:39:17.217Z,11.27
2022-10-30T17:41:46.776Z,13.20
2022-10-30T17:44:20.602Z,13.50
2022-10-30T17:46:51.232Z,13.03
2022-10-30T17:49:24.612Z,10.83
2022-10-30T17:51:55.263Z,11.93
2022-10-30T17:54:24.335Z,11.53
2022-10-30T17:56:53.396Z,12.83
2022-10-30T17:59:22.598Z,11.57
2022-10-30T18:01:51.771Z,11.43
2022-10-30T18:04:21.798Z,11.73
2022-10-30T18:06:50.836Z,17.17
2022-10-30T18:09:21.319Z,11.00
2022-10-30T18:11:50.580Z,13.13
2022-10-30T18:14:19.885Z,11.87
2022-10-30T18:16:52.919Z,12.07
2022-10-30T18:19:24.772Z,13.03
2022-10-30T18:21:54.791Z,12.27
2022-10-30T18:24:25.374Z,11.37
2022-10-30T18:26:55.070Z,14.47
2022-10-30T18:29:24.071Z,13.43
2022-10-30T18:31:53.285Z,15.40
2022-10-30T18:34:22.435Z,13.23
2022-10-30T18:36:51.822Z,11.47
2022-10-30T18:39:20.951Z,11.27
2022-10-30T18:41:51.569Z,14.17
2022-10-30T18:44:20.997Z,12.90
2022-10-30T18:46:50.311Z,12.77
2022-10-30T18:49:24.569Z,12.20
2022-10-30T18:51:53.820Z,12.20
2022-10-30T18:54:22.881Z,12.30
2022-10-30T18:56:53.530Z,13.07
2022-10-30T18:59:23.371Z,14.20
2022-10-30T19:01:52.778Z,15.20
2022-10-30T19:04:22.705Z,15.80
2022-10-30T19:06:52.296Z,16.17
2022-10-30T19:09:21.416Z,15.40
2022-10-30T19:11:50.780Z,13.90
2022-10-30T19:14:21.528Z,14.70
2022-10-30T19:16:51.125Z,12.73
2022-10-30T19:19:20.392Z,15.73
2022-10-30T19:21:49.961Z,16.07
2022-10-30T19:24:19.426Z,15.77
2022-10-30T19:26:48.465Z,16.17
2022-10-30T19:29:17.747Z,16.20
2022-10-30T19:31:49.379Z,15.60
2022-10-30T19:34:18.511Z,16.73
2022-10-30T19:36:47.570Z,14.37
2022-10-30T19:39:17.334Z,15.97
2022-10-30T19:41:46.309Z,15.37
2022-10-30T19:44:15.461Z,18.27
2022-10-30T19:46:44.465Z,14.67
2022-10-30T19:49:19.997Z,14.30
2022-10-30T19:51:49.504Z,15.10
2022-10-30T19:54:18.539Z,35.53
2022-10-30T19:56:49.839Z,16.47
2022-10-30T19:59:18.900Z,22.10
2022-10-30T20:01:48.474Z,15.63
2022-10-30T20:04:19.799Z,23.30
2022-10-30T20:06:49.033Z,14.00
2022-10-30T20:09:18.154Z,14.27
2022-10-30T20:11:47.659Z,23.10
2022-10-30T20:14:16.765Z,21.07
2022-10-30T20:16:45.977Z,17.37
2022-10-30T20:19:27.046Z,15.80
2022-10-30T20:21:56.357Z,17.50
2022-10-30T20:24:25.539Z,15.93
2022-10-30T20:26:55.404Z,18.90
2022-10-30T20:29:25.555Z,15.90
2022-10-30T20:31:54.786Z,15.80
2022-10-30T20:34:25.451Z,16.53
2022-10-30T20:36:54.683Z,19.20
2022-10-30T20:39:23.815Z,24.03
2022-10-30T20:41:53.104Z,23.50
2022-10-30T20:44:22.174Z,20.90
2022-10-30T20:46:51.280Z,21.13
2022-10-30T20:49:21.349Z,18.50
2022-10-30T20:51:51.920Z,17.37
2022-10-30T20:54:21.141Z,14.80
2022-10-30T20:56:50.322Z,12.30
2022-10-30T20:59:19.750Z,13.83
2022-10-30T21:01:49.016Z,15.97
2022-10-30T21:04:18.200Z,16.23
2022-10-30T21:06:47.436Z,16.27
2022-10-30T21:09:18.161Z,18.90
2022-10-30T21:11:47.323Z,15.50
2022-10-30T21:14:16.369Z,13.10
2022-10-30T21:16:45.571Z,13.80
2022-10-30T21:19:14.894Z,14.43
2022-10-30T21:21:44.298Z,14.70
2022-10-30T21:24:13.526Z,15.10
2022-10-30T21:26:44.050Z,14.00
2022-10-30T21:29:13.285Z,14.10
2022-10-30T21:31:42.358Z,16.63
2022-10-30T21:34:11.677Z,13.97
2022-10-30T21:36:40.771Z,15.60
2022-10-30T21:39:10.067Z,15.60
2022-10-30T21:41:39.444Z,15.13
2022-10-30T21:44:11.718Z,14.47
2022-10-30T21:46:40.947Z,13.90
2022-10-30T21:49:13.653Z,15.30
2022-10-30T21:51:43.107Z,20.37
2022-10-30T21:54:12.515Z,22.73
2022-10-30T21:56:41.499Z,16.00
2022-10-30T21:59:13.150Z,14.77
2022-10-30T22:01:43.378Z,14.10
2022-10-30T22:04:13.498Z,15.33
2022-10-30T22:06:43.226Z,17.93
2022-10-30T22:09:13.097Z,15.70
2022-10-30T22:11:42.228Z,16.07
2022-10-30T22:14:13.583Z,16.17
2022-10-30T22:16:42.848Z,14.43
2022-10-30T22:19:12.435Z,16.77
2022-10-30T22:21:41.572Z,15.07
2022-10-30T22:24:13.168Z,14.40
2022-10-30T22:26:42.432Z,15.70
2022-10-30T22:29:13.546Z,13.50
2022-10-30T22:31:42.981Z,15.27
2022-10-30T22:34:12.067Z,13.23
2022-10-30T22:36:41.457Z,15.67
2022-10-30T22:39:12.725Z,17.07
2022-10-30T22:41:42.034Z,15.23
2022-10-30T22:44:14.753Z,13.93
2022-10-30T22:46:43.960Z,15.10
2022-10-30T22:49:13.082Z,15.43
2022-10-30T22:51:42.514Z,15.13
2022-10-30T22:54:12.459Z,15.77
2022-10-30T22:56:41.986Z,14.13
2022-10-30T22:59:13.881Z,15.23
2022-10-30T23:02:08.400Z,15.37
2022-10-30T23:04:39.326Z,16.53
2022-10-30T23:07:08.724Z,19.90
2022-10-30T23:09:38.001Z,14.90
2022-10-30T23:12:07.493Z,15.07
2022-10-30T23:14:36.740Z,16.27
2022-10-30T23:17:06.187Z,15.70
2022-10-30T23:19:35.375Z,13.60
2022-10-30T23:22:05.967Z,14.33
2022-10-30T23:24:35.526Z,15.00
2022-10-30T23:27:04.972Z,14.63
2022-10-30T23:29:34.297Z,14.93
2022-10-30T23:32:03.412Z,13.97
2022-10-30T23:34:32.692Z,14.00
2022-10-30T23:37:02.075Z,15.30
2022-10-30T23:39:32.800Z,14.30
2022-10-30T23:42:01.945Z,15.67
2022-10-30T23:44:31.152Z,15.90
2022-10-30T23:47:00.250Z,16.13
2022-10-30T23:49:33.944Z,15.20
2022-10-30T23:52:04.068Z,16.37
2022-10-30T23:54:34.744Z,15.67
2022-10-30T23:57:03.947Z,15.17
2022-10-30T23:59:33.172Z,14.80
